sensor_id;sensor_type;location;lat;lon;timestamp;P1;durP1;ratioP1;P2;durP2;ratioP2
51738;SDS011;37815;52.692;6.226;2022-08-03T05:25:26;5.47;;;1.10;;
51738;SDS011;37815;52.692;6.226;2022-08-03T05:30:26;2.55;;;1.48;;
51738;SDS011;37815;52.692;6.226;2022-08-03T05:35:27;3.92;;;1.40;;
51738;SDS011;37815;52.692;6.226;2022-08-03T05:41:28;3.08;;;1.10;;
51738;SDS011;37815;52.692;6.226;2022-08-03T05:47:28;2.55;;;1.20;;
51738;SDS011;37815;52.692;6.226;2022-08-03T05:53:31;2.95;;;1.27;;
51738;SDS011;37815;52.692;6.226;2022-08-03T05:59:29;2.28;;;1.00;;
51738;SDS011;37815;52.692;6.226;2022-08-03T06:05:30;5.15;;;1.30;;
51738;SDS011;37815;52.692;6.226;2022-08-03T06:11:30;2.95;;;1.30;;
51738;SDS011;37815;52.692;6.226;2022-08-03T06:17:31;2.13;;;0.98;;
51738;SDS011;37815;52.692;6.226;2022-08-03T06:23:31;1.77;;;1.00;;
51738;SDS011;37815;52.692;6.226;2022-08-03T06:29:32;3.75;;;1.02;;
51738;SDS011;37815;52.692;6.226;2022-08-03T06:35:32;4.30;;;1.30;;
51738;SDS011;37815;52.692;6.226;2022-08-03T06:41:33;3.78;;;1.25;;
51738;SDS011;37815;52.692;6.226;2022-08-03T06:47:33;3.10;;;1.10;;
51738;SDS011;37815;52.692;6.226;2022-08-03T06:53:39;4.72;;;1.63;;
51738;SDS011;37815;52.692;6.226;2022-08-03T06:59:40;5.13;;;1.50;;
51738;SDS011;37815;52.692;6.226;2022-08-03T07:05:41;3.38;;;1.20;;
51738;SDS011;37815;52.692;6.226;2022-08-03T07:11:42;2.15;;;1.17;;
51738;SDS011;37815;52.692;6.226;2022-08-03T07:17:42;3.17;;;1.50;;
51738;SDS011;37815;52.692;6.226;2022-08-03T07:23:43;3.95;;;1.38;;
51738;SDS011;37815;52.692;6.226;2022-08-03T07:28:44;2.80;;;1.17;;
51738;SDS011;37815;52.692;6.226;2022-08-03T07:33:45;6.38;;;1.50;;
51738;SDS011;37815;52.692;6.226;2022-08-03T07:38:47;4.45;;;1.50;;
51738;SDS011;37815;52.692;6.226;2022-08-03T07:43:50;4.65;;;1.40;;
51738;SDS011;37815;52.692;6.226;2022-08-03T07:48:57;3.72;;;1.27;;
51738;SDS011;37815;52.692;6.226;2022-08-03T07:54:09;5.03;;;1.77;;
51738;SDS011;37815;52.692;6.226;2022-08-03T07:59:10;4.05;;;1.35;;
51738;SDS011;37815;52.692;6.226;2022-08-03T08:04:11;2.15;;;1.42;;
51738;SDS011;37815;52.692;6.226;2022-08-03T08:09:12;5.43;;;1.60;;
51738;SDS011;37815;52.692;6.226;2022-08-03T08:14:14;5.38;;;1.50;;
51738;SDS011;37815;52.692;6.226;2022-08-03T08:19:14;4.65;;;1.38;;
51738;SDS011;37815;52.692;6.226;2022-08-03T08:24:15;3.95;;;1.50;;
51738;SDS011;37815;52.692;6.226;2022-08-03T08:29:16;3.63;;;1.90;;
51738;SDS011;37815;52.692;6.226;2022-08-03T08:34:19;5.55;;;1.50;;
51738;SDS011;37815;52.692;6.226;2022-08-03T08:39:20;3.38;;;1.45;;
51738;SDS011;37815;52.692;6.226;2022-08-03T08:44:20;7.10;;;1.67;;
51738;SDS011;37815;52.692;6.226;2022-08-03T08:49:22;9.93;;;2.78;;
51738;SDS011;37815;52.692;6.226;2022-08-03T08:54:27;7.35;;;1.48;;
51738;SDS011;37815;52.692;6.226;2022-08-03T08:59:31;5.60;;;1.70;;
51738;SDS011;37815;52.692;6.226;2022-08-03T09:04:37;4.65;;;1.50;;
51738;SDS011;37815;52.692;6.226;2022-08-03T09:09:38;3.45;;;1.40;;
51738;SDS011;37815;52.692;6.226;2022-08-03T09:14:39;5.88;;;1.55;;
51738;SDS011;37815;52.692;6.226;2022-08-03T09:20:39;3.63;;;1.55;;
51738;SDS011;37815;52.692;6.226;2022-08-03T09:26:38;3.03;;;1.70;;
51738;SDS011;37815;52.692;6.226;2022-08-03T09:32:39;5.60;;;1.80;;
51738;SDS011;37815;52.692;6.226;2022-08-03T09:38:59;3.78;;;1.80;;
51738;SDS011;37815;52.692;6.226;2022-08-03T09:44:47;4.53;;;1.58;;
51738;SDS011;37815;52.692;6.226;2022-08-03T09:50:28;7.80;;;2.00;;
51738;SDS011;37815;52.692;6.226;2022-08-03T09:56:09;6.63;;;2.00;;
51738;SDS011;37815;52.692;6.226;2022-08-03T10:02:22;5.07;;;1.67;;
51738;SDS011;37815;52.692;6.226;2022-08-03T10:08:22;7.28;;;2.85;;
51738;SDS011;37815;52.692;6.226;2022-08-03T10:14:22;6.30;;;1.92;;
51738;SDS011;37815;52.692;6.226;2022-08-03T10:20:23;6.75;;;1.67;;
51738;SDS011;37815;52.692;6.226;2022-08-03T10:53:49;8.13;;;2.42;;
51738;SDS011;37815;52.692;6.226;2022-08-03T10:58:50;6.63;;;1.92;;
51738;SDS011;37815;52.692;6.226;2022-08-03T11:09:16;3.55;;;1.92;;
51738;SDS011;37815;52.692;6.226;2022-08-03T11:14:19;6.43;;;2.05;;
51738;SDS011;37815;52.692;6.226;2022-08-03T11:19:21;5.88;;;2.20;;
51738;SDS011;37815;52.692;6.226;2022-08-03T11:35:30;6.07;;;2.28;;
51738;SDS011;37815;52.692;6.226;2022-08-03T11:45:56;8.50;;;2.42;;
51738;SDS011;37815;52.692;6.226;2022-08-03T11:50:59;9.13;;;2.00;;
51738;SDS011;37815;52.692;6.226;2022-08-03T11:56:01;7.95;;;1.92;;
51738;SDS011;37815;52.692;6.226;2022-08-03T12:02:11;6.90;;;2.10;;
51738;SDS011;37815;52.692;6.226;2022-08-03T12:08:11;4.10;;;1.98;;
51738;SDS011;37815;52.692;6.226;2022-08-03T12:14:15;4.75;;;1.65;;
51738;SDS011;37815;52.692;6.226;2022-08-03T12:20:19;6.47;;;1.70;;
51738;SDS011;37815;52.692;6.226;2022-08-03T12:26:13;5.18;;;1.90;;
51738;SDS011;37815;52.692;6.226;2022-08-03T12:32:26;9.07;;;1.63;;
51738;SDS011;37815;52.692;6.226;2022-08-03T12:38:26;4.03;;;1.48;;
51738;SDS011;37815;52.692;6.226;2022-08-03T12:44:31;6.60;;;1.92;;
51738;SDS011;37815;52.692;6.226;2022-08-03T12:50:31;6.78;;;2.20;;
51738;SDS011;37815;52.692;6.226;2022-08-03T12:56:31;6.80;;;1.92;;
51738;SDS011;37815;52.692;6.226;2022-08-03T13:02:18;3.55;;;1.60;;
51738;SDS011;37815;52.692;6.226;2022-08-03T13:08:18;6.97;;;1.73;;
51738;SDS011;37815;52.692;6.226;2022-08-03T13:14:18;4.65;;;1.98;;
51738;SDS011;37815;52.692;6.226;2022-08-03T13:20:19;5.50;;;1.63;;
51738;SDS011;37815;52.692;6.226;2022-08-03T13:26:19;5.95;;;1.70;;
51738;SDS011;37815;52.692;6.226;2022-08-03T13:32:20;4.28;;;1.70;;
51738;SDS011;37815;52.692;6.226;2022-08-03T13:38:20;6.78;;;2.80;;
51738;SDS011;37815;52.692;6.226;2022-08-03T13:44:21;4.28;;;1.48;;
51738;SDS011;37815;52.692;6.226;2022-08-03T15:38:52;7.32;;;2.17;;
51738;SDS011;37815;52.692;6.226;2022-08-03T15:43:53;4.18;;;1.85;;
51738;SDS011;37815;52.692;6.226;2022-08-03T15:48:53;4.43;;;1.90;;
51738;SDS011;37815;52.692;6.226;2022-08-03T15:53:54;5.72;;;2.30;;
51738;SDS011;37815;52.692;6.226;2022-08-03T15:59:54;8.57;;;2.70;;
51738;SDS011;37815;52.692;6.226;2022-08-03T16:05:55;6.25;;;3.08;;
51738;SDS011;37815;52.692;6.226;2022-08-03T16:11:55;7.97;;;3.35;;
51738;SDS011;37815;52.692;6.226;2022-08-03T16:17:56;5.15;;;3.17;;
51738;SDS011;37815;52.692;6.226;2022-08-03T16:22:57;9.60;;;2.88;;
51738;SDS011;37815;52.692;6.226;2022-08-03T16:27:58;7.72;;;2.30;;
51738;SDS011;37815;52.692;6.226;2022-08-03T16:32:59;6.30;;;2.50;;
51738;SDS011;37815;52.692;6.226;2022-08-03T16:38:00;6.07;;;1.60;;
51738;SDS011;37815;52.692;6.226;2022-08-03T16:43:02;5.93;;;1.80;;
51738;SDS011;37815;52.692;6.226;2022-08-03T16:48:14;5.97;;;2.08;;
51738;SDS011;37815;52.692;6.226;2022-08-03T16:53:15;6.53;;;1.90;;
51738;SDS011;37815;52.692;6.226;2022-08-03T16:58:16;4.68;;;1.75;;
51738;SDS011;37815;52.692;6.226;2022-08-03T17:03:19;5.45;;;1.85;;
51738;SDS011;37815;52.692;6.226;2022-08-03T17:08:22;4.43;;;1.90;;
51738;SDS011;37815;52.692;6.226;2022-08-03T17:13:22;5.68;;;1.88;;
51738;SDS011;37815;52.692;6.226;2022-08-03T17:18:29;6.25;;;1.77;;
51738;SDS011;37815;52.692;6.226;2022-08-03T17:23:38;6.82;;;2.00;;
51738;SDS011;37815;52.692;6.226;2022-08-03T17:28:45;6.72;;;1.95;;
51738;SDS011;37815;52.692;6.226;2022-08-03T17:33:49;6.97;;;1.80;;
51738;SDS011;37815;52.692;6.226;2022-08-03T17:39:08;5.22;;;1.48;;
51738;SDS011;37815;52.692;6.226;2022-08-03T17:44:14;5.82;;;1.90;;
51738;SDS011;37815;52.692;6.226;2022-08-03T17:49:15;7.68;;;2.08;;
51738;SDS011;37815;52.692;6.226;2022-08-03T17:54:22;3.72;;;1.73;;
51738;SDS011;37815;52.692;6.226;2022-08-03T18:05:00;7.30;;;1.92;;
51738;SDS011;37815;52.692;6.226;2022-08-03T18:10:10;13.75;;;1.67;;
51738;SDS011;37815;52.692;6.226;2022-08-03T18:15:16;4.45;;;1.60;;
51738;SDS011;37815;52.692;6.226;2022-08-03T18:20:27;6.35;;;1.52;;
51738;SDS011;37815;52.692;6.226;2022-08-03T18:25:29;5.72;;;1.50;;
51738;SDS011;37815;52.692;6.226;2022-08-03T18:30:31;10.07;;;2.13;;
51738;SDS011;37815;52.692;6.226;2022-08-03T18:35:32;8.50;;;1.80;;
51738;SDS011;37815;52.692;6.226;2022-08-03T18:40:35;9.07;;;1.73;;
51738;SDS011;37815;52.692;6.226;2022-08-03T18:45:50;4.32;;;1.92;;
51738;SDS011;37815;52.692;6.226;2022-08-03T18:50:58;5.53;;;1.33;;
51738;SDS011;37815;52.692;6.226;2022-08-03T19:01:53;6.07;;;1.60;;
51738;SDS011;37815;52.692;6.226;2022-08-03T19:07:56;8.68;;;1.70;;
51738;SDS011;37815;52.692;6.226;2022-08-03T19:13:54;4.35;;;1.38;;
51738;SDS011;37815;52.692;6.226;2022-08-03T19:19:54;4.88;;;1.48;;
51738;SDS011;37815;52.692;6.226;2022-08-03T19:25:58;5.13;;;1.70;;
51738;SDS011;37815;52.692;6.226;2022-08-03T19:31:59;7.40;;;1.73;;
51738;SDS011;37815;52.692;6.226;2022-08-03T19:37:59;6.88;;;1.63;;
51738;SDS011;37815;52.692;6.226;2022-08-03T19:44:02;4.32;;;1.65;;
51738;SDS011;37815;52.692;6.226;2022-08-03T19:49:43;6.20;;;1.48;;
51738;SDS011;37815;52.692;6.226;2022-08-03T19:55:45;8.48;;;1.75;;
51738;SDS011;37815;52.692;6.226;2022-08-03T20:01:46;5.10;;;1.35;;
51738;SDS011;37815;52.692;6.226;2022-08-03T20:07:46;5.18;;;1.17;;
51738;SDS011;37815;52.692;6.226;2022-08-03T20:13:47;3.90;;;1.55;;
51738;SDS011;37815;52.692;6.226;2022-08-03T20:19:48;9.50;;;1.95;;
51738;SDS011;37815;52.692;6.226;2022-08-03T21:24:27;3.72;;;1.40;;
51738;SDS011;37815;52.692;6.226;2022-08-03T21:29:29;2.85;;;1.33;;
51738;SDS011;37815;52.692;6.226;2022-08-03T21:34:30;2.90;;;1.35;;
51738;SDS011;37815;52.692;6.226;2022-08-03T21:39:33;3.67;;;1.27;;
51738;SDS011;37815;52.692;6.226;2022-08-03T21:44:34;3.30;;;1.50;;
51738;SDS011;37815;52.692;6.226;2022-08-03T21:49:36;6.68;;;1.67;;
51738;SDS011;37815;52.692;6.226;2022-08-03T21:54:38;4.55;;;1.63;;
51738;SDS011;37815;52.692;6.226;2022-08-03T21:59:42;3.05;;;1.60;;
51738;SDS011;37815;52.692;6.226;2022-08-03T22:04:52;3.05;;;1.40;;
51738;SDS011;37815;52.692;6.226;2022-08-03T22:09:57;3.33;;;1.30;;
51738;SDS011;37815;52.692;6.226;2022-08-03T22:15:00;3.08;;;1.38;;
51738;SDS011;37815;52.692;6.226;2022-08-03T22:20:06;3.92;;;1.60;;
51738;SDS011;37815;52.692;6.226;2022-08-03T22:25:13;3.00;;;1.65;;
51738;SDS011;37815;52.692;6.226;2022-08-03T22:30:16;4.90;;;1.58;;
51738;SDS011;37815;52.692;6.226;2022-08-03T22:35:18;4.03;;;1.60;;
51738;SDS011;37815;52.692;6.226;2022-08-03T22:40:20;2.38;;;1.48;;
51738;SDS011;37815;52.692;6.226;2022-08-03T22:45:21;4.38;;;1.70;;
51738;SDS011;37815;52.692;6.226;2022-08-03T22:50:22;2.45;;;1.42;;
51738;SDS011;37815;52.692;6.226;2022-08-03T22:55:25;5.55;;;1.48;;
51738;SDS011;37815;52.692;6.226;2022-08-03T23:00:26;4.13;;;1.35;;
51738;SDS011;37815;52.692;6.226;2022-08-03T23:05:32;2.97;;;1.63;;
51738;SDS011;37815;52.692;6.226;2022-08-03T23:10:37;6.10;;;1.70;;
51738;SDS011;37815;52.692;6.226;2022-08-03T23:15:39;2.95;;;1.60;;
51738;SDS011;37815;52.692;6.226;2022-08-03T23:20:40;3.60;;;1.55;;
51738;SDS011;37815;52.692;6.226;2022-08-03T23:25:41;2.17;;;1.65;;
51738;SDS011;37815;52.692;6.226;2022-08-03T23:30:45;5.72;;;2.20;;
51738;SDS011;37815;52.692;6.226;2022-08-03T23:35:49;2.75;;;1.42;;
51738;SDS011;37815;52.692;6.226;2022-08-03T23:41:00;2.92;;;1.40;;
51738;SDS011;37815;52.692;6.226;2022-08-03T23:46:02;3.72;;;1.60;;
51738;SDS011;37815;52.692;6.226;2022-08-03T23:51:08;4.43;;;1.45;;
51738;SDS011;37815;52.692;6.226;2022-08-03T23:57:14;3.53;;;1.65;;
